Time;durP1;ratioP1;P1;durP2;ratioP2;P2;SDS_P1;SDS_P2;PMS_P1;PMS_P2;Temp;Humidity;BMP_temperature;BMP_pressure;BME280_temperature;BME280_humidity;BME280_pressure;Samples;Min_cycle;Max_cycle;Signal;HPM_P1;HPM_P2
2022/09/13 00:07:57;;;;;;;3.08;1.90;;;19.00;99.90;;;;;;20776877;28;20040;-36
2022/09/13 00:17:58;;;;;;;3.55;2.03;;;18.90;99.90;;;;;;20769394;28;20111;-36
2022/09/13 00:27:59;;;;;;;2.70;1.65;;;18.90;99.90;;;;;;20770712;28;20154;-36
2022/09/13 00:38:00;;;;;;;4.82;2.30;;;18.90;99.90;;;;;;20767173;28;20087;-36
2022/09/13 00:48:06;;;;;;;4.05;2.42;;;18.80;99.90;;;;;;20772478;28;20045;-36
2022/09/13 00:58:17;;;;;;;5.68;2.40;;;18.90;99.90;;;;;;20774736;28;20084;-36
2022/09/13 01:08:21;;;;;;;11.90;3.28;;;18.80;99.90;;;;;;20765228;28;20061;-36
2022/09/13 01:18:23;;;;;;;4.03;2.38;;;18.60;99.90;;;;;;20765033;28;20174;-35
2022/09/13 01:28:44;;;;;;;6.10;3.28;;;18.50;99.90;;;;;;20770309;28;20554;-36
2022/09/13 01:39:03;;;;;;;7.68;4.47;;;18.50;99.90;;;;;;20732298;28;20824;-36
2022/09/13 01:49:22;;;;;;;5.05;3.08;;;18.40;99.90;;;;;;20765215;28;20078;-36
2022/09/13 01:59:41;;;;;;;5.10;2.65;;;18.50;99.90;;;;;;20769172;28;20508;-35
2022/09/13 02:09:50;;;;;;;7.20;4.40;;;18.40;99.90;;;;;;20759200;28;20287;-36
2022/09/13 02:19:56;;;;;;;8.45;3.95;;;18.40;99.90;;;;;;20760979;28;20034;-36
2022/09/13 02:30:02;;;;;;;7.70;3.53;;;18.40;99.90;;;;;;20773352;28;20076;-36
2022/09/13 02:40:09;;;;;;;9.43;3.92;;;18.30;99.90;;;;;;20762946;28;20349;-36
2022/09/13 02:50:27;;;;;;;5.93;3.08;;;18.30;99.90;;;;;;20770220;28;20064;-36
2022/09/13 03:00:28;;;;;;;6.97;3.92;;;18.20;99.90;;;;;;20784266;28;20570;-36
2022/09/13 03:10:50;;;;;;;7.88;3.42;;;18.20;99.90;;;;;;20793144;28;20045;-36
2022/09/13 03:21:29;;;;;;;10.90;3.88;;;18.20;99.90;;;;;;20779309;28;20775;-36
2022/09/13 03:31:48;;;;;;;8.23;4.57;;;18.10;99.90;;;;;;20786345;28;20493;-36
2022/09/13 03:41:55;;;;;;;8.77;4.65;;;18.10;99.90;;;;;;20777671;28;20515;-36
2022/09/13 03:51:57;;;;;;;7.70;4.07;;;18.10;99.90;;;;;;20771534;28;20142;-36
2022/09/13 04:01:59;;;;;;;7.38;4.03;;;18.10;99.90;;;;;;20785522;28;20030;-36
2022/09/13 04:12:00;;;;;;;9.40;4.32;;;18.10;99.90;;;;;;20740506;28;1350639;-36
2022/09/13 04:22:02;;;;;;;9.95;4.80;;;18.00;99.90;;;;;;20783971;28;20553;-36
2022/09/13 04:32:03;;;;;;;10.07;5.35;;;18.00;99.90;;;;;;20792237;28;20053;-36
2022/09/13 04:42:06;;;;;;;8.55;4.53;;;18.00;99.90;;;;;;20775320;28;20076;-36
2022/09/13 04:52:07;;;;;;;14.88;5.60;;;17.90;99.90;;;;;;20787991;28;20126;-36
2022/09/13 05:02:08;;;;;;;7.18;4.63;;;17.80;99.90;;;;;;20790640;28;21905;-36
2022/09/13 05:12:10;;;;;;;7.43;4.72;;;17.80;99.90;;;;;;20786998;28;20135;-36
2022/09/13 05:22:11;;;;;;;10.93;5.68;;;17.80;99.90;;;;;;20775172;28;20554;-36
2022/09/13 05:32:13;;;;;;;10.23;5.63;;;17.80;99.90;;;;;;20784265;28;20401;-36
2022/09/13 05:42:14;;;;;;;9.90;5.43;;;17.80;99.90;;;;;;20773078;28;20071;-36
2022/09/13 05:52:15;;;;;;;9.63;5.35;;;17.90;99.90;;;;;;20778835;28;20496;-36
2022/09/13 06:02:16;;;;;;;7.60;4.68;;;18.10;99.90;;;;;;20790593;28;20041;-36
2022/09/13 06:12:17;;;;;;;7.72;4.43;;;18.20;99.90;;;;;;20782405;28;20056;-36
2022/09/13 06:22:18;;;;;;;5.97;4.05;;;18.40;99.90;;;;;;20778017;28;20037;-36
2022/09/13 06:32:19;;;;;;;10.15;4.82;;;18.50;99.90;;;;;;20764244;28;20045;-36
2022/09/13 06:42:20;;;;;;;6.82;4.13;;;18.50;99.90;;;;;;20733753;28;20050;-36
2022/09/13 06:52:21;;;;;;;7.03;4.68;;;18.70;99.90;;;;;;20772006;28;20049;-36
2022/09/13 07:02:23;;;;;;;5.22;3.28;;;18.90;99.90;;;;;;20757193;28;20037;-36
2022/09/13 07:12:24;;;;;;;5.65;3.17;;;19.00;99.90;;;;;;20787784;28;20041;-36
2022/09/13 07:22:26;;;;;;;5.80;2.92;;;19.20;99.90;;;;;;20772942;28;20112;-36
2022/09/13 07:32:30;;;;;;;3.72;2.33;;;19.40;99.90;;;;;;20742034;28;20107;-36
2022/09/13 07:42:31;;;;;;;5.10;1.90;;;19.60;99.90;;;;;;20796290;28;20087;-36
2022/09/13 07:52:36;;;;;;;2.75;1.50;;;19.80;99.90;;;;;;20791434;28;20037;-36
2022/09/13 08:02:37;;;;;;;3.67;1.65;;;19.80;99.90;;;;;;20803432;28;20044;-36
2022/09/13 08:12:38;;;;;;;2.75;1.25;;;20.00;99.90;;;;;;20808667;28;20045;-36
2022/09/13 08:22:39;;;;;;;2.15;1.15;;;19.90;99.90;;;;;;20797940;28;20041;-36
2022/09/13 08:32:40;;;;;;;1.75;1.00;;;20.10;99.90;;;;;;20796972;28;20084;-36
2022/09/13 08:42:52;;;;;;;1.48;0.80;;;20.30;99.90;;;;;;20793573;28;20057;-36
2022/09/13 08:53:11;;;;;;;1.13;0.40;;;20.60;99.90;;;;;;20786937;28;20493;-36
2022/09/13 09:03:37;;;;;;;1.20;0.57;;;20.70;99.90;;;;;;20792423;28;20056;-36
2022/09/13 09:14:22;;;;;;;2.72;0.65;;;20.90;99.90;;;;;;20790958;28;20095;-36
2022/09/13 09:24:24;;;;;;;0.43;0.20;;;21.40;99.90;;;;;;20744628;28;20856;-36
2022/09/13 09:34:51;;;;;;;1.02;0.30;;;21.40;99.90;;;;;;20793667;28;20048;-36
2022/09/13 09:45:01;;;;;;;0.40;0.20;;;21.10;99.90;;;;;;20792018;28;20862;-36
2022/09/13 09:55:25;;;;;;;3.55;0.40;;;20.80;99.90;;;;;;20811271;28;20037;-36
2022/09/13 10:05:29;;;;;;;0.82;0.30;;;20.50;99.90;;;;;;20803365;28;20328;-36
2022/09/13 10:15:32;;;;;;;2.05;0.60;;;20.60;99.90;;;;;;20809108;28;20046;-36
2022/09/13 10:25:35;;;;;;;0.75;0.32;;;20.90;99.90;;;;;;20812736;28;20045;-36
2022/09/13 10:35:37;;;;;;;1.58;0.60;;;21.30;99.90;;;;;;20809999;28;20358;-36
2022/09/13 10:45:41;;;;;;;1.17;0.50;;;21.20;99.90;;;;;;20806753;28;20515;-36
2022/09/13 10:55:51;;;;;;;1.13;0.40;;;21.20;99.90;;;;;;20781814;28;20617;-37
2022/09/13 11:06:21;;;;;;;0.60;0.28;;;21.60;99.90;;;;;;20777466;28;20037;-36
2022/09/13 11:16:28;;;;;;;4.70;0.25;;;22.40;99.90;;;;;;20787669;28;20049;-36
2022/09/13 11:26:36;;;;;;;0.73;0.27;;;23.00;99.90;;;;;;20811548;28;20045;-36
2022/09/13 11:37:09;;;;;;;1.23;0.63;;;22.80;99.90;;;;;;20805898;28;20099;-36
2022/09/13 11:47:21;;;;;;;0.47;0.10;;;23.30;99.90;;;;;;20787826;28;20305;-36
2022/09/13 11:57:31;;;;;;;0.25;0.10;;;23.50;99.90;;;;;;20801522;28;20048;-36
2022/09/13 12:07:42;;;;;;;0.55;0.20;;;23.80;99.90;;;;;;20794195;28;20054;-36
2022/09/13 12:17:53;;;;;;;0.65;0.40;;;24.40;99.90;;;;;;20798289;28;20928;-36
2022/09/13 12:28:26;;;;;;;0.45;0.20;;;24.70;99.90;;;;;;20789529;28;20099;-36
2022/09/13 12:38:39;;;;;;;1.17;0.28;;;24.10;99.90;;;;;;20796490;28;20034;-36
2022/09/13 12:49:05;;;;;;;0.65;0.25;;;24.20;99.90;;;;;;20787099;28;20041;-36
2022/09/13 12:59:34;;;;;;;0.32;0.10;;;24.20;99.90;;;;;;20788498;28;21013;-36
2022/09/13 13:09:43;;;;;;;0.63;0.30;;;24.60;99.90;;;;;;20792368;28;20127;-36
2022/09/13 13:19:47;;;;;;;1.65;0.30;;;25.00;99.90;;;;;;20774651;28;20673;-36
2022/09/13 13:30:26;;;;;;;0.43;0.20;;;25.20;99.90;;;;;;20779019;28;20096;-36
2022/09/13 13:40:28;;;;;;;0.70;0.10;;;24.90;99.90;;;;;;20775446;28;20037;-36
2022/09/13 13:50:29;;;;;;;1.58;0.20;;;24.50;99.90;;;;;;20774342;28;20390;-36
2022/09/13 14:00:33;;;;;;;0.50;0.20;;;24.80;99.90;;;;;;20775509;28;20045;-36
2022/09/13 14:10:38;;;;;;;1.23;0.35;;;25.60;99.90;;;;;;20771369;28;20068;-36
2022/09/13 14:21:16;;;;;;;1.70;0.25;;;25.90;99.90;;;;;;20776226;28;20044;-36
2022/09/13 14:31:19;;;;;;;0.57;0.20;;;24.60;99.90;;;;;;20750134;28;20932;-36
2022/09/13 14:41:27;;;;;;;0.10;0.10;;;24.00;99.90;;;;;;20751456;28;20041;-38
2022/09/13 14:51:31;;;;;;;0.43;0.10;;;23.50;99.90;;;;;;20768362;28;20057;-39
2022/09/13 15:01:34;;;;;;;0.68;0.28;;;22.90;99.90;;;;;;20773259;28;20072;-39
2022/09/13 15:11:40;;;;;;;1.55;0.10;;;22.50;99.90;;;;;;20756119;28;20064;-38
2022/09/13 15:21:41;;;;;;;1.42;0.40;;;22.20;99.90;;;;;;20775480;28;20828;-39
2022/09/13 15:31:42;;;;;;;0.77;0.22;;;21.90;99.90;;;;;;20777231;28;20095;-39
2022/09/13 15:41:59;;;;;;;0.80;0.25;;;21.70;99.90;;;;;;20790410;28;20528;-38
2022/09/13 15:52:01;;;;;;;1.45;0.35;;;21.40;99.90;;;;;;20801747;28;20372;-36
2022/09/13 16:02:24;;;;;;;0.30;0.20;;;21.20;99.90;;;;;;20788824;28;20029;-36
2022/09/13 16:12:25;;;;;;;0.70;0.20;;;21.00;99.90;;;;;;20784991;28;20045;-36
2022/09/13 16:22:26;;;;;;;0.30;0.10;;;20.70;99.90;;;;;;20756155;28;20944;-36
2022/09/13 16:32:27;;;;;;;1.50;0.10;;;20.70;99.90;;;;;;20781270;28;20480;-38
2022/09/13 16:42:28;;;;;;;0.40;0.05;;;20.60;99.90;;;;;;20766181;28;20520;-36
2022/09/13 16:52:29;;;;;;;1.05;0.73;;;20.50;99.90;;;;;;20759665;28;20167;-36
2022/09/13 17:02:31;;;;;;;1.13;0.20;;;20.40;99.90;;;;;;20752801;28;20033;-36
2022/09/13 17:12:32;;;;;;;1.27;0.20;;;20.10;99.90;;;;;;20750861;28;20456;-36
2022/09/13 17:22:33;;;;;;;0.32;0.10;;;20.00;99.90;;;;;;20754157;28;20603;-36
2022/09/13 17:32:34;;;;;;;0.55;0.20;;;19.90;99.90;;;;;;20763104;28;20216;-36
2022/09/13 17:42:36;;;;;;;5.97;1.55;;;19.70;99.90;;;;;;20754820;28;20643;-36
2022/09/13 17:52:37;;;;;;;0.65;0.20;;;19.50;99.90;;;;;;20765166;28;20114;-36
2022/09/13 18:02:38;;;;;;;0.80;0.30;;;19.40;99.90;;;;;;20755966;28;20188;-37
2022/09/13 18:12:39;;;;;;;0.90;0.40;;;19.20;99.90;;;;;;20758192;28;20081;-36
2022/09/13 18:22:40;;;;;;;0.63;0.22;;;19.00;99.90;;;;;;20759922;28;20040;-36
2022/09/13 18:32:41;;;;;;;1.73;0.38;;;18.90;99.90;;;;;;20685304;28;20789;-36
2022/09/13 18:42:42;;;;;;;1.35;0.28;;;18.60;99.90;;;;;;20748409;28;20124;-37
2022/09/13 18:52:43;;;;;;;1.30;0.40;;;18.60;99.90;;;;;;20756637;28;20091;-36
2022/09/13 19:02:46;;;;;;;0.77;0.22;;;18.50;99.90;;;;;;20757452;28;20061;-37
2022/09/13 19:12:47;;;;;;;0.70;0.22;;;18.50;99.90;;;;;;20739194;28;20537;-36
2022/09/13 19:22:49;;;;;;;0.43;0.30;;;18.20;99.90;;;;;;20743330;28;20519;-36
2022/09/13 19:32:50;;;;;;;0.88;0.20;;;18.20;99.90;;;;;;20741046;28;20124;-36
2022/09/13 19:42:51;;;;;;;1.05;0.50;;;18.00;99.90;;;;;;20753794;28;20121;-36
2022/09/13 19:52:52;;;;;;;1.50;0.85;;;17.90;99.90;;;;;;20761857;28;20041;-36
2022/09/13 20:02:53;;;;;;;1.05;0.28;;;17.80;99.90;;;;;;20761194;28;20119;-36
2022/09/13 20:12:54;;;;;;;1.48;0.30;;;17.80;99.90;;;;;;20787839;28;20033;-36
2022/09/13 20:22:55;;;;;;;1.48;0.93;;;17.70;99.90;;;;;;20781560;28;20033;-36
2022/09/13 20:32:56;;;;;;;0.90;0.35;;;17.80;99.90;;;;;;20764948;28;20087;-36
2022/09/13 20:42:57;;;;;;;1.02;0.17;;;17.70;99.90;;;;;;20769238;28;20053;-36
2022/09/13 20:52:59;;;;;;;1.60;0.93;;;17.50;99.90;;;;;;20778643;28;20045;-36
2022/09/13 21:03:00;;;;;;;5.45;0.60;;;17.40;99.90;;;;;;20771655;28;20077;-36
2022/09/13 21:13:01;;;;;;;0.90;0.30;;;17.30;99.90;;;;;;20774945;28;20037;-36
2022/09/13 21:23:02;;;;;;;1.30;0.43;;;17.30;99.90;;;;;;20780887;28;20038;-36
2022/09/13 21:33:03;;;;;;;0.70;0.40;;;17.10;99.90;;;;;;20779068;28;20049;-36
2022/09/13 21:43:04;;;;;;;0.47;0.25;;;17.10;99.90;;;;;;20756551;28;20173;-36
2022/09/13 21:53:05;;;;;;;0.77;0.30;;;17.00;99.90;;;;;;20771969;28;20051;-36
2022/09/13 22:03:09;;;;;;;1.33;0.75;;;16.90;99.90;;;;;;20782818;28;20037;-36
2022/09/13 22:13:10;;;;;;;0.75;0.30;;;16.90;99.90;;;;;;20772214;28;20079;-36
2022/09/13 22:23:11;;;;;;;1.08;0.38;;;16.80;99.90;;;;;;20779827;28;20038;-36
2022/09/13 22:33:12;;;;;;;1.23;0.30;;;16.70;99.90;;;;;;20774879;28;20045;-36
2022/09/13 22:43:13;;;;;;;1.02;0.30;;;16.60;99.90;;;;;;20769416;28;20117;-36
2022/09/13 22:53:14;;;;;;;1.30;0.30;;;16.60;99.90;;;;;;20766184;28;20037;-36
2022/09/13 23:03:15;;;;;;;0.80;0.30;;;16.60;99.90;;;;;;20769716;28;20053;-36
2022/09/13 23:13:16;;;;;;;1.02;0.55;;;16.60;99.90;;;;;;20783745;28;20566;-38
2022/09/13 23:23:17;;;;;;;0.90;0.30;;;16.50;99.90;;;;;;20780912;28;20568;-36
2022/09/13 23:33:18;;;;;;;0.47;0.20;;;16.50;99.90;;;;;;20781368;28;20045;-36
2022/09/13 23:43:19;;;;;;;2.60;0.70;;;16.50;99.90;;;;;;20782265;28;20037;-36
2022/09/13 23:53:20;;;;;;;0.65;0.25;;;16.50;99.90;;;;;;20787603;28;20048;-37
